sensor_id;sensor_type;location;lat;lon;timestamp;P1;durP1;ratioP1;P2;durP2;ratioP2
1354;SDS011;671;48.972;9.276;2023-05-07T00:01:00;0.30;;;0.30;;
1354;SDS011;671;48.972;9.276;2023-05-07T00:03:27;0.40;;;0.40;;
1354;SDS011;671;48.972;9.276;2023-05-07T00:05:53;0.40;;;0.40;;
1354;SDS011;671;48.972;9.276;2023-05-07T00:08:20;0.30;;;0.30;;
1354;SDS011;671;48.972;9.276;2023-05-07T00:10:46;0.33;;;0.33;;
1354;SDS011;671;48.972;9.276;2023-05-07T00:13:13;0.40;;;0.37;;
1354;SDS011;671;48.972;9.276;2023-05-07T00:15:39;0.40;;;0.37;;
1354;SDS011;671;48.972;9.276;2023-05-07T00:18:06;0.40;;;0.40;;
1354;SDS011;671;48.972;9.276;2023-05-07T00:20:33;0.30;;;0.30;;
1354;SDS011;671;48.972;9.276;2023-05-07T00:22:59;0.40;;;0.40;;
1354;SDS011;671;48.972;9.276;2023-05-07T00:25:26;0.40;;;0.37;;
1354;SDS011;671;48.972;9.276;2023-05-07T00:27:52;0.40;;;0.30;;
1354;SDS011;671;48.972;9.276;2023-05-07T00:30:19;0.40;;;0.30;;
1354;SDS011;671;48.972;9.276;2023-05-07T00:32:45;0.40;;;0.30;;
1354;SDS011;671;48.972;9.276;2023-05-07T00:35:14;0.30;;;0.30;;
1354;SDS011;671;48.972;9.276;2023-05-07T00:37:41;0.40;;;0.30;;
1354;SDS011;671;48.972;9.276;2023-05-07T00:40:07;0.40;;;0.30;;
1354;SDS011;671;48.972;9.276;2023-05-07T00:42:34;0.40;;;0.30;;
1354;SDS011;671;48.972;9.276;2023-05-07T00:45:02;0.30;;;0.30;;
1354;SDS011;671;48.972;9.276;2023-05-07T00:47:28;0.40;;;0.40;;
1354;SDS011;671;48.972;9.276;2023-05-07T00:49:55;0.40;;;0.40;;
1354;SDS011;671;48.972;9.276;2023-05-07T00:52:23;0.40;;;0.40;;
1354;SDS011;671;48.972;9.276;2023-05-07T00:54:51;0.30;;;0.30;;
1354;SDS011;671;48.972;9.276;2023-05-07T00:57:18;0.40;;;0.30;;
1354;SDS011;671;48.972;9.276;2023-05-07T00:59:47;0.50;;;0.50;;
1354;SDS011;671;48.972;9.276;2023-05-07T01:02:14;0.40;;;0.33;;
1354;SDS011;671;48.972;9.276;2023-05-07T01:04:40;0.40;;;0.40;;
1354;SDS011;671;48.972;9.276;2023-05-07T01:07:07;0.40;;;0.40;;
1354;SDS011;671;48.972;9.276;2023-05-07T01:09:34;0.40;;;0.40;;
1354;SDS011;671;48.972;9.276;2023-05-07T01:12:02;0.47;;;0.47;;
1354;SDS011;671;48.972;9.276;2023-05-07T01:14:29;0.33;;;0.33;;
1354;SDS011;671;48.972;9.276;2023-05-07T01:16:56;0.40;;;0.40;;
1354;SDS011;671;48.972;9.276;2023-05-07T01:19:24;0.40;;;0.30;;
1354;SDS011;671;48.972;9.276;2023-05-07T01:21:51;0.50;;;0.50;;
1354;SDS011;671;48.972;9.276;2023-05-07T01:24:23;0.40;;;0.40;;
1354;SDS011;671;48.972;9.276;2023-05-07T01:26:50;0.40;;;0.33;;
1354;SDS011;671;48.972;9.276;2023-05-07T01:29:16;0.47;;;0.47;;
1354;SDS011;671;48.972;9.276;2023-05-07T01:31:43;0.40;;;0.40;;
1354;SDS011;671;48.972;9.276;2023-05-07T01:34:10;0.50;;;0.50;;
1354;SDS011;671;48.972;9.276;2023-05-07T01:36:38;0.40;;;0.40;;
1354;SDS011;671;48.972;9.276;2023-05-07T01:39:05;0.40;;;0.33;;
1354;SDS011;671;48.972;9.276;2023-05-07T01:41:33;0.40;;;0.40;;
1354;SDS011;671;48.972;9.276;2023-05-07T01:44:01;0.40;;;0.40;;
1354;SDS011;671;48.972;9.276;2023-05-07T01:46:28;0.43;;;0.43;;
1354;SDS011;671;48.972;9.276;2023-05-07T01:48:57;0.50;;;0.50;;
1354;SDS011;671;48.972;9.276;2023-05-07T01:51:23;0.40;;;0.30;;
1354;SDS011;671;48.972;9.276;2023-05-07T01:53:50;0.40;;;0.40;;
1354;SDS011;671;48.972;9.276;2023-05-07T01:56:19;0.50;;;0.50;;
1354;SDS011;671;48.972;9.276;2023-05-07T01:58:46;0.30;;;0.30;;
1354;SDS011;671;48.972;9.276;2023-05-07T02:01:13;0.30;;;0.30;;
1354;SDS011;671;48.972;9.276;2023-05-07T02:03:40;0.40;;;0.40;;
1354;SDS011;671;48.972;9.276;2023-05-07T02:06:06;0.40;;;0.40;;
1354;SDS011;671;48.972;9.276;2023-05-07T02:08:33;0.40;;;0.30;;
1354;SDS011;671;48.972;9.276;2023-05-07T02:10:59;0.40;;;0.40;;
1354;SDS011;671;48.972;9.276;2023-05-07T02:13:31;0.40;;;0.40;;
1354;SDS011;671;48.972;9.276;2023-05-07T02:15:58;0.50;;;0.50;;
1354;SDS011;671;48.972;9.276;2023-05-07T02:18:25;0.40;;;0.40;;
1354;SDS011;671;48.972;9.276;2023-05-07T02:20:51;0.37;;;0.37;;
1354;SDS011;671;48.972;9.276;2023-05-07T02:23:18;0.43;;;0.43;;
1354;SDS011;671;48.972;9.276;2023-05-07T02:25:44;0.40;;;0.30;;
1354;SDS011;671;48.972;9.276;2023-05-07T02:28:12;0.30;;;0.30;;
1354;SDS011;671;48.972;9.276;2023-05-07T02:30:38;0.40;;;0.40;;
1354;SDS011;671;48.972;9.276;2023-05-07T02:33:06;0.40;;;0.40;;
1354;SDS011;671;48.972;9.276;2023-05-07T02:35:34;0.40;;;0.40;;
1354;SDS011;671;48.972;9.276;2023-05-07T02:38:00;0.40;;;0.40;;
1354;SDS011;671;48.972;9.276;2023-05-07T02:40:27;0.40;;;0.40;;
1354;SDS011;671;48.972;9.276;2023-05-07T02:42:53;0.40;;;0.40;;
1354;SDS011;671;48.972;9.276;2023-05-07T02:45:20;0.40;;;0.40;;
1354;SDS011;671;48.972;9.276;2023-05-07T02:47:46;0.50;;;0.50;;
1354;SDS011;671;48.972;9.276;2023-05-07T02:50:13;0.40;;;0.40;;
1354;SDS011;671;48.972;9.276;2023-05-07T02:52:39;0.40;;;0.33;;
1354;SDS011;671;48.972;9.276;2023-05-07T02:55:06;0.40;;;0.40;;
1354;SDS011;671;48.972;9.276;2023-05-07T02:57:33;0.50;;;0.50;;
1354;SDS011;671;48.972;9.276;2023-05-07T02:59:59;0.40;;;0.30;;
1354;SDS011;671;48.972;9.276;2023-05-07T03:02:35;0.40;;;0.40;;
1354;SDS011;671;48.972;9.276;2023-05-07T03:05:02;0.30;;;0.30;;
1354;SDS011;671;48.972;9.276;2023-05-07T03:07:29;0.40;;;0.30;;
1354;SDS011;671;48.972;9.276;2023-05-07T03:09:57;0.40;;;0.30;;
1354;SDS011;671;48.972;9.276;2023-05-07T03:12:23;0.40;;;0.40;;
1354;SDS011;671;48.972;9.276;2023-05-07T03:14:50;0.50;;;0.50;;
1354;SDS011;671;48.972;9.276;2023-05-07T03:17:16;0.40;;;0.40;;
1354;SDS011;671;48.972;9.276;2023-05-07T03:19:43;0.40;;;0.30;;
1354;SDS011;671;48.972;9.276;2023-05-07T03:22:09;0.47;;;0.47;;
1354;SDS011;671;48.972;9.276;2023-05-07T03:24:36;0.40;;;0.40;;
1354;SDS011;671;48.972;9.276;2023-05-07T03:27:02;0.50;;;0.50;;
1354;SDS011;671;48.972;9.276;2023-05-07T03:29:29;0.47;;;0.47;;
1354;SDS011;671;48.972;9.276;2023-05-07T03:31:55;0.40;;;0.40;;
1354;SDS011;671;48.972;9.276;2023-05-07T03:34:22;0.40;;;0.30;;
1354;SDS011;671;48.972;9.276;2023-05-07T03:36:49;0.40;;;0.40;;
1354;SDS011;671;48.972;9.276;2023-05-07T03:39:15;0.60;;;0.60;;
1354;SDS011;671;48.972;9.276;2023-05-07T03:41:42;0.40;;;0.30;;
1354;SDS011;671;48.972;9.276;2023-05-07T03:44:08;0.50;;;0.50;;
1354;SDS011;671;48.972;9.276;2023-05-07T03:46:35;0.40;;;0.40;;
1354;SDS011;671;48.972;9.276;2023-05-07T03:49:01;0.50;;;0.50;;
1354;SDS011;671;48.972;9.276;2023-05-07T03:51:28;0.40;;;0.40;;
1354;SDS011;671;48.972;9.276;2023-05-07T03:53:54;0.33;;;0.30;;
1354;SDS011;671;48.972;9.276;2023-05-07T03:56:23;0.43;;;0.43;;
1354;SDS011;671;48.972;9.276;2023-05-07T03:58:52;0.50;;;0.50;;
1354;SDS011;671;48.972;9.276;2023-05-07T04:01:18;0.40;;;0.40;;
1354;SDS011;671;48.972;9.276;2023-05-07T04:03:46;0.53;;;0.53;;
1354;SDS011;671;48.972;9.276;2023-05-07T04:06:12;0.40;;;0.40;;
1354;SDS011;671;48.972;9.276;2023-05-07T04:08:39;0.40;;;0.40;;
1354;SDS011;671;48.972;9.276;2023-05-07T04:11:05;0.40;;;0.40;;
1354;SDS011;671;48.972;9.276;2023-05-07T04:13:32;0.50;;;0.50;;
1354;SDS011;671;48.972;9.276;2023-05-07T04:16:00;0.40;;;0.40;;
1354;SDS011;671;48.972;9.276;2023-05-07T04:18:28;0.50;;;0.50;;
1354;SDS011;671;48.972;9.276;2023-05-07T04:20:54;0.50;;;0.50;;
1354;SDS011;671;48.972;9.276;2023-05-07T04:23:21;0.50;;;0.50;;
1354;SDS011;671;48.972;9.276;2023-05-07T04:25:47;0.40;;;0.40;;
1354;SDS011;671;48.972;9.276;2023-05-07T04:28:14;0.37;;;0.30;;
1354;SDS011;671;48.972;9.276;2023-05-07T04:30:40;0.47;;;0.47;;
1354;SDS011;671;48.972;9.276;2023-05-07T04:33:07;0.40;;;0.40;;
1354;SDS011;671;48.972;9.276;2023-05-07T04:35:33;0.40;;;0.40;;
1354;SDS011;671;48.972;9.276;2023-05-07T04:38:00;0.40;;;0.40;;
1354;SDS011;671;48.972;9.276;2023-05-07T04:40:27;0.40;;;0.40;;
1354;SDS011;671;48.972;9.276;2023-05-07T04:42:54;0.40;;;0.40;;
1354;SDS011;671;48.972;9.276;2023-05-07T04:45:20;0.40;;;0.40;;
1354;SDS011;671;48.972;9.276;2023-05-07T04:47:47;0.50;;;0.50;;
1354;SDS011;671;48.972;9.276;2023-05-07T04:50:13;0.50;;;0.50;;
1354;SDS011;671;48.972;9.276;2023-05-07T04:52:40;0.43;;;0.43;;
1354;SDS011;671;48.972;9.276;2023-05-07T04:55:06;0.50;;;0.50;;
1354;SDS011;671;48.972;9.276;2023-05-07T04:57:33;0.40;;;0.40;;
1354;SDS011;671;48.972;9.276;2023-05-07T05:00:00;0.50;;;0.50;;
1354;SDS011;671;48.972;9.276;2023-05-07T05:02:26;0.50;;;0.50;;
1354;SDS011;671;48.972;9.276;2023-05-07T05:04:53;0.43;;;0.43;;
1354;SDS011;671;48.972;9.276;2023-05-07T05:07:19;0.40;;;0.30;;
1354;SDS011;671;48.972;9.276;2023-05-07T05:09:46;0.43;;;0.43;;
1354;SDS011;671;48.972;9.276;2023-05-07T05:12:12;0.50;;;0.50;;
1354;SDS011;671;48.972;9.276;2023-05-07T05:14:39;0.40;;;0.40;;
1354;SDS011;671;48.972;9.276;2023-05-07T05:17:05;0.40;;;0.40;;
1354;SDS011;671;48.972;9.276;2023-05-07T05:19:31;0.30;;;0.20;;
1354;SDS011;671;48.972;9.276;2023-05-07T05:21:58;0.30;;;0.30;;
1354;SDS011;671;48.972;9.276;2023-05-07T05:24:26;0.40;;;0.30;;
1354;SDS011;671;48.972;9.276;2023-05-07T05:26:53;0.30;;;0.30;;
1354;SDS011;671;48.972;9.276;2023-05-07T05:29:20;0.50;;;0.50;;
1354;SDS011;671;48.972;9.276;2023-05-07T05:31:46;0.50;;;0.50;;
1354;SDS011;671;48.972;9.276;2023-05-07T05:34:13;0.40;;;0.40;;
1354;SDS011;671;48.972;9.276;2023-05-07T05:36:40;0.40;;;0.40;;
1354;SDS011;671;48.972;9.276;2023-05-07T05:39:06;0.40;;;0.40;;
1354;SDS011;671;48.972;9.276;2023-05-07T05:41:34;0.40;;;0.40;;
1354;SDS011;671;48.972;9.276;2023-05-07T05:44:00;0.40;;;0.40;;
1354;SDS011;671;48.972;9.276;2023-05-07T05:46:27;0.40;;;0.30;;
1354;SDS011;671;48.972;9.276;2023-05-07T05:48:53;0.40;;;0.40;;
1354;SDS011;671;48.972;9.276;2023-05-07T05:51:20;0.30;;;0.30;;
1354;SDS011;671;48.972;9.276;2023-05-07T05:53:47;0.40;;;0.37;;
1354;SDS011;671;48.972;9.276;2023-05-07T05:56:13;0.40;;;0.40;;
1354;SDS011;671;48.972;9.276;2023-05-07T05:58:41;0.40;;;0.30;;
1354;SDS011;671;48.972;9.276;2023-05-07T06:01:08;0.30;;;0.30;;
1354;SDS011;671;48.972;9.276;2023-05-07T06:03:34;0.30;;;0.30;;
1354;SDS011;671;48.972;9.276;2023-05-07T06:06:01;0.40;;;0.30;;
1354;SDS011;671;48.972;9.276;2023-05-07T06:08:30;0.30;;;0.20;;
1354;SDS011;671;48.972;9.276;2023-05-07T06:10:56;0.30;;;0.30;;
1354;SDS011;671;48.972;9.276;2023-05-07T06:13:24;0.30;;;0.30;;
1354;SDS011;671;48.972;9.276;2023-05-07T06:15:50;0.30;;;0.30;;
1354;SDS011;671;48.972;9.276;2023-05-07T06:18:17;0.30;;;0.30;;
1354;SDS011;671;48.972;9.276;2023-05-07T06:20:43;0.30;;;0.30;;
1354;SDS011;671;48.972;9.276;2023-05-07T06:23:10;0.30;;;0.30;;
1354;SDS011;671;48.972;9.276;2023-05-07T06:25:36;0.30;;;0.30;;
1354;SDS011;671;48.972;9.276;2023-05-07T06:28:03;0.30;;;0.23;;
1354;SDS011;671;48.972;9.276;2023-05-07T06:30:29;0.30;;;0.30;;
1354;SDS011;671;48.972;9.276;2023-05-07T06:32:56;0.30;;;0.30;;
1354;SDS011;671;48.972;9.276;2023-05-07T06:35:22;0.30;;;0.30;;
1354;SDS011;671;48.972;9.276;2023-05-07T06:37:49;0.30;;;0.30;;
1354;SDS011;671;48.972;9.276;2023-05-07T06:40:15;0.30;;;0.20;;
1354;SDS011;671;48.972;9.276;2023-05-07T06:42:42;0.30;;;0.20;;
1354;SDS011;671;48.972;9.276;2023-05-07T06:45:09;0.30;;;0.30;;
1354;SDS011;671;48.972;9.276;2023-05-07T06:47:36;0.30;;;0.30;;
1354;SDS011;671;48.972;9.276;2023-05-07T06:50:02;0.30;;;0.20;;
1354;SDS011;671;48.972;9.276;2023-05-07T06:52:29;0.30;;;0.20;;
1354;SDS011;671;48.972;9.276;2023-05-07T06:54:55;0.30;;;0.20;;
1354;SDS011;671;48.972;9.276;2023-05-07T06:57:22;0.30;;;0.20;;
1354;SDS011;671;48.972;9.276;2023-05-07T06:59:48;0.30;;;0.20;;
1354;SDS011;671;48.972;9.276;2023-05-07T07:02:15;0.30;;;0.30;;
1354;SDS011;671;48.972;9.276;2023-05-07T07:04:41;0.30;;;0.20;;
1354;SDS011;671;48.972;9.276;2023-05-07T07:07:08;0.30;;;0.20;;
1354;SDS011;671;48.972;9.276;2023-05-07T07:09:34;0.30;;;0.20;;
1354;SDS011;671;48.972;9.276;2023-05-07T07:12:01;0.30;;;0.27;;
1354;SDS011;671;48.972;9.276;2023-05-07T07:14:27;0.30;;;0.30;;
1354;SDS011;671;48.972;9.276;2023-05-07T07:16:53;0.30;;;0.20;;
1354;SDS011;671;48.972;9.276;2023-05-07T07:19:20;0.30;;;0.20;;
1354;SDS011;671;48.972;9.276;2023-05-07T07:21:47;0.30;;;0.20;;
1354;SDS011;671;48.972;9.276;2023-05-07T07:24:13;0.30;;;0.20;;
1354;SDS011;671;48.972;9.276;2023-05-07T07:26:47;0.30;;;0.20;;
1354;SDS011;671;48.972;9.276;2023-05-07T07:29:13;0.30;;;0.20;;
1354;SDS011;671;48.972;9.276;2023-05-07T07:31:40;0.30;;;0.20;;
1354;SDS011;671;48.972;9.276;2023-05-07T07:34:06;0.30;;;0.20;;
1354;SDS011;671;48.972;9.276;2023-05-07T07:36:33;0.30;;;0.20;;
1354;SDS011;671;48.972;9.276;2023-05-07T07:38:59;0.30;;;0.20;;
1354;SDS011;671;48.972;9.276;2023-05-07T07:41:26;0.30;;;0.20;;
1354;SDS011;671;48.972;9.276;2023-05-07T07:43:52;0.30;;;0.20;;
1354;SDS011;671;48.972;9.276;2023-05-07T07:46:19;0.30;;;0.20;;
1354;SDS011;671;48.972;9.276;2023-05-07T07:48:45;0.30;;;0.20;;
1354;SDS011;671;48.972;9.276;2023-05-07T07:51:11;0.30;;;0.20;;
1354;SDS011;671;48.972;9.276;2023-05-07T07:53:38;0.30;;;0.20;;
1354;SDS011;671;48.972;9.276;2023-05-07T07:56:04;0.30;;;0.20;;
1354;SDS011;671;48.972;9.276;2023-05-07T07:58:31;0.30;;;0.20;;
1354;SDS011;671;48.972;9.276;2023-05-07T08:00:57;0.30;;;0.20;;
1354;SDS011;671;48.972;9.276;2023-05-07T08:03:24;0.30;;;0.20;;
1354;SDS011;671;48.972;9.276;2023-05-07T08:05:50;0.30;;;0.20;;
1354;SDS011;671;48.972;9.276;2023-05-07T08:08:17;0.30;;;0.20;;
1354;SDS011;671;48.972;9.276;2023-05-07T08:10:58;0.30;;;0.20;;
1354;SDS011;671;48.972;9.276;2023-05-07T08:13:25;0.30;;;0.20;;
1354;SDS011;671;48.972;9.276;2023-05-07T08:15:52;0.30;;;0.20;;
1354;SDS011;671;48.972;9.276;2023-05-07T08:18:18;0.30;;;0.20;;
1354;SDS011;671;48.972;9.276;2023-05-07T08:20:45;0.30;;;0.20;;
1354;SDS011;671;48.972;9.276;2023-05-07T08:23:12;0.30;;;0.20;;
1354;SDS011;671;48.972;9.276;2023-05-07T08:25:39;0.30;;;0.20;;
1354;SDS011;671;48.972;9.276;2023-05-07T08:28:05;0.30;;;0.20;;
1354;SDS011;671;48.972;9.276;2023-05-07T08:30:32;0.30;;;0.20;;
1354;SDS011;671;48.972;9.276;2023-05-07T08:32:59;0.30;;;0.20;;
1354;SDS011;671;48.972;9.276;2023-05-07T08:35:26;0.30;;;0.20;;
1354;SDS011;671;48.972;9.276;2023-05-07T08:37:53;0.30;;;0.20;;
1354;SDS011;671;48.972;9.276;2023-05-07T08:40:24;0.30;;;0.20;;
1354;SDS011;671;48.972;9.276;2023-05-07T08:42:52;0.30;;;0.20;;
1354;SDS011;671;48.972;9.276;2023-05-07T08:45:20;0.30;;;0.20;;
1354;SDS011;671;48.972;9.276;2023-05-07T08:47:51;0.30;;;0.20;;
1354;SDS011;671;48.972;9.276;2023-05-07T08:53:11;0.30;;;0.20;;
1354;SDS011;671;48.972;9.276;2023-05-07T08:55:39;0.30;;;0.20;;
1354;SDS011;671;48.972;9.276;2023-05-07T08:58:05;0.30;;;0.20;;
1354;SDS011;671;48.972;9.276;2023-05-07T09:00:32;0.30;;;0.20;;
1354;SDS011;671;48.972;9.276;2023-05-07T09:02:59;0.30;;;0.20;;
1354;SDS011;671;48.972;9.276;2023-05-07T09:05:26;0.30;;;0.20;;
1354;SDS011;671;48.972;9.276;2023-05-07T09:07:53;0.30;;;0.10;;
1354;SDS011;671;48.972;9.276;2023-05-07T09:10:21;0.30;;;0.20;;
1354;SDS011;671;48.972;9.276;2023-05-07T09:12:47;0.30;;;0.20;;
1354;SDS011;671;48.972;9.276;2023-05-07T09:15:14;0.30;;;0.20;;
1354;SDS011;671;48.972;9.276;2023-05-07T09:17:41;0.30;;;0.10;;
1354;SDS011;671;48.972;9.276;2023-05-07T09:20:09;0.30;;;0.17;;
1354;SDS011;671;48.972;9.276;2023-05-07T09:22:36;0.30;;;0.20;;
1354;SDS011;671;48.972;9.276;2023-05-07T09:25:05;0.30;;;0.20;;
1354;SDS011;671;48.972;9.276;2023-05-07T09:27:32;0.30;;;0.10;;
1354;SDS011;671;48.972;9.276;2023-05-07T09:30:02;0.30;;;0.10;;
1354;SDS011;671;48.972;9.276;2023-05-07T09:32:29;0.30;;;0.10;;
1354;SDS011;671;48.972;9.276;2023-05-07T09:34:57;0.30;;;0.10;;
1354;SDS011;671;48.972;9.276;2023-05-07T09:37:25;0.30;;;0.20;;
1354;SDS011;671;48.972;9.276;2023-05-07T09:39:52;0.30;;;0.20;;
1354;SDS011;671;48.972;9.276;2023-05-07T09:42:25;0.30;;;0.20;;
1354;SDS011;671;48.972;9.276;2023-05-07T09:44:52;0.30;;;0.10;;
1354;SDS011;671;48.972;9.276;2023-05-07T09:47:19;0.30;;;0.10;;
1354;SDS011;671;48.972;9.276;2023-05-07T09:49:47;0.30;;;0.10;;
1354;SDS011;671;48.972;9.276;2023-05-07T09:52:15;0.30;;;0.10;;
1354;SDS011;671;48.972;9.276;2023-05-07T09:54:42;0.30;;;0.10;;
1354;SDS011;671;48.972;9.276;2023-05-07T09:57:11;0.30;;;0.10;;
1354;SDS011;671;48.972;9.276;2023-05-07T09:59:39;0.30;;;0.10;;
1354;SDS011;671;48.972;9.276;2023-05-07T10:02:08;0.30;;;0.10;;
1354;SDS011;671;48.972;9.276;2023-05-07T10:04:36;0.30;;;0.20;;
1354;SDS011;671;48.972;9.276;2023-05-07T10:07:03;0.30;;;0.10;;
1354;SDS011;671;48.972;9.276;2023-05-07T10:09:31;0.30;;;0.20;;
1354;SDS011;671;48.972;9.276;2023-05-07T10:11:58;0.30;;;0.10;;
1354;SDS011;671;48.972;9.276;2023-05-07T10:14:25;0.30;;;0.20;;
1354;SDS011;671;48.972;9.276;2023-05-07T10:16:54;0.30;;;0.20;;
1354;SDS011;671;48.972;9.276;2023-05-07T10:19:23;0.30;;;0.20;;
1354;SDS011;671;48.972;9.276;2023-05-07T10:21:59;0.30;;;0.20;;
1354;SDS011;671;48.972;9.276;2023-05-07T10:24:30;0.30;;;0.10;;
1354;SDS011;671;48.972;9.276;2023-05-07T10:27:00;0.30;;;0.10;;
1354;SDS011;671;48.972;9.276;2023-05-07T10:32:35;0.30;;;0.10;;
1354;SDS011;671;48.972;9.276;2023-05-07T10:35:16;0.30;;;0.10;;
1354;SDS011;671;48.972;9.276;2023-05-07T10:37:44;0.30;;;0.10;;
1354;SDS011;671;48.972;9.276;2023-05-07T10:40:11;0.30;;;0.10;;
1354;SDS011;671;48.972;9.276;2023-05-07T10:42:39;0.30;;;0.10;;
1354;SDS011;671;48.972;9.276;2023-05-07T10:45:26;0.30;;;0.10;;
1354;SDS011;671;48.972;9.276;2023-05-07T10:50:36;0.30;;;0.10;;
1354;SDS011;671;48.972;9.276;2023-05-07T10:55:48;0.30;;;0.10;;
1354;SDS011;671;48.972;9.276;2023-05-07T10:58:23;0.30;;;0.10;;
1354;SDS011;671;48.972;9.276;2023-05-07T11:01:00;0.30;;;0.10;;
1354;SDS011;671;48.972;9.276;2023-05-07T11:03:28;0.30;;;0.10;;
1354;SDS011;671;48.972;9.276;2023-05-07T11:08:57;0.30;;;0.10;;
1354;SDS011;671;48.972;9.276;2023-05-07T11:14:59;0.30;;;0.10;;
1354;SDS011;671;48.972;9.276;2023-05-07T11:17:06;0.30;;;0.10;;
1354;SDS011;671;48.972;9.276;2023-05-07T11:19:49;0.30;;;0.10;;
1354;SDS011;671;48.972;9.276;2023-05-07T11:26:07;0.30;;;0.13;;
1354;SDS011;671;48.972;9.276;2023-05-07T11:31:05;0.30;;;0.10;;
1354;SDS011;671;48.972;9.276;2023-05-07T11:33:32;0.30;;;0.10;;
1354;SDS011;671;48.972;9.276;2023-05-07T11:36:00;0.30;;;0.10;;
1354;SDS011;671;48.972;9.276;2023-05-07T11:38:28;0.30;;;0.10;;
1354;SDS011;671;48.972;9.276;2023-05-07T11:40:57;0.30;;;0.10;;
1354;SDS011;671;48.972;9.276;2023-05-07T11:43:28;0.30;;;0.10;;
1354;SDS011;671;48.972;9.276;2023-05-07T11:45:54;0.30;;;0.10;;
1354;SDS011;671;48.972;9.276;2023-05-07T11:48:30;0.30;;;0.10;;
1354;SDS011;671;48.972;9.276;2023-05-07T11:51:00;0.30;;;0.10;;
1354;SDS011;671;48.972;9.276;2023-05-07T11:53:34;0.30;;;0.10;;
1354;SDS011;671;48.972;9.276;2023-05-07T11:56:10;0.30;;;0.10;;
1354;SDS011;671;48.972;9.276;2023-05-07T11:58:38;0.30;;;0.10;;
1354;SDS011;671;48.972;9.276;2023-05-07T12:01:06;0.30;;;0.10;;
1354;SDS011;671;48.972;9.276;2023-05-07T12:03:35;0.30;;;0.10;;
1354;SDS011;671;48.972;9.276;2023-05-07T12:06:05;0.30;;;0.10;;
1354;SDS011;671;48.972;9.276;2023-05-07T12:08:32;0.30;;;0.10;;
1354;SDS011;671;48.972;9.276;2023-05-07T12:11:01;0.30;;;0.10;;
1354;SDS011;671;48.972;9.276;2023-05-07T12:13:28;0.30;;;0.10;;
1354;SDS011;671;48.972;9.276;2023-05-07T12:15:55;0.30;;;0.10;;
1354;SDS011;671;48.972;9.276;2023-05-07T12:18:22;0.30;;;0.10;;
1354;SDS011;671;48.972;9.276;2023-05-07T12:20:49;0.30;;;0.10;;
1354;SDS011;671;48.972;9.276;2023-05-07T12:23:16;0.30;;;0.10;;
1354;SDS011;671;48.972;9.276;2023-05-07T12:25:44;0.30;;;0.10;;
1354;SDS011;671;48.972;9.276;2023-05-07T12:28:14;0.30;;;0.10;;
1354;SDS011;671;48.972;9.276;2023-05-07T12:30:42;0.30;;;0.10;;
1354;SDS011;671;48.972;9.276;2023-05-07T12:33:10;0.30;;;0.10;;
1354;SDS011;671;48.972;9.276;2023-05-07T12:35:41;0.30;;;0.10;;
1354;SDS011;671;48.972;9.276;2023-05-07T12:38:12;0.30;;;0.20;;
1354;SDS011;671;48.972;9.276;2023-05-07T12:40:40;0.30;;;0.10;;
1354;SDS011;671;48.972;9.276;2023-05-07T12:43:14;0.30;;;0.10;;
1354;SDS011;671;48.972;9.276;2023-05-07T12:45:43;0.30;;;0.10;;
1354;SDS011;671;48.972;9.276;2023-05-07T12:48:10;0.30;;;0.10;;
1354;SDS011;671;48.972;9.276;2023-05-07T12:50:37;0.30;;;0.10;;
1354;SDS011;671;48.972;9.276;2023-05-07T12:53:04;0.30;;;0.10;;
1354;SDS011;671;48.972;9.276;2023-05-07T12:55:32;0.30;;;0.10;;
1354;SDS011;671;48.972;9.276;2023-05-07T12:58:06;0.30;;;0.10;;
1354;SDS011;671;48.972;9.276;2023-05-07T13:00:38;0.30;;;0.10;;
1354;SDS011;671;48.972;9.276;2023-05-07T13:03:05;0.30;;;0.10;;
1354;SDS011;671;48.972;9.276;2023-05-07T13:05:32;0.30;;;0.10;;
1354;SDS011;671;48.972;9.276;2023-05-07T13:07:58;0.30;;;0.10;;
1354;SDS011;671;48.972;9.276;2023-05-07T13:10:25;0.30;;;0.10;;
1354;SDS011;671;48.972;9.276;2023-05-07T13:12:52;0.30;;;0.10;;
1354;SDS011;671;48.972;9.276;2023-05-07T13:15:19;0.30;;;0.10;;
1354;SDS011;671;48.972;9.276;2023-05-07T13:17:45;0.30;;;0.10;;
1354;SDS011;671;48.972;9.276;2023-05-07T13:20:12;0.30;;;0.10;;
1354;SDS011;671;48.972;9.276;2023-05-07T13:22:39;0.30;;;0.10;;
1354;SDS011;671;48.972;9.276;2023-05-07T13:25:06;0.30;;;0.10;;
1354;SDS011;671;48.972;9.276;2023-05-07T13:27:33;0.30;;;0.10;;
1354;SDS011;671;48.972;9.276;2023-05-07T13:30:03;0.30;;;0.10;;
1354;SDS011;671;48.972;9.276;2023-05-07T13:32:30;0.30;;;0.20;;
1354;SDS011;671;48.972;9.276;2023-05-07T13:34:57;0.30;;;0.10;;
1354;SDS011;671;48.972;9.276;2023-05-07T13:37:24;0.30;;;0.10;;
1354;SDS011;671;48.972;9.276;2023-05-07T13:39:50;0.30;;;0.10;;
1354;SDS011;671;48.972;9.276;2023-05-07T13:42:17;0.30;;;0.10;;
1354;SDS011;671;48.972;9.276;2023-05-07T13:44:43;0.30;;;0.10;;
1354;SDS011;671;48.972;9.276;2023-05-07T13:47:10;0.30;;;0.10;;
1354;SDS011;671;48.972;9.276;2023-05-07T13:49:36;0.30;;;0.10;;
1354;SDS011;671;48.972;9.276;2023-05-07T13:52:03;0.30;;;0.10;;
1354;SDS011;671;48.972;9.276;2023-05-07T13:54:30;0.30;;;0.10;;
1354;SDS011;671;48.972;9.276;2023-05-07T13:56:56;0.30;;;0.10;;
1354;SDS011;671;48.972;9.276;2023-05-07T13:59:23;0.30;;;0.10;;
1354;SDS011;671;48.972;9.276;2023-05-07T14:01:49;0.30;;;0.20;;
1354;SDS011;671;48.972;9.276;2023-05-07T14:04:16;0.30;;;0.20;;
1354;SDS011;671;48.972;9.276;2023-05-07T14:06:42;0.30;;;0.10;;
1354;SDS011;671;48.972;9.276;2023-05-07T14:09:09;0.30;;;0.10;;
1354;SDS011;671;48.972;9.276;2023-05-07T14:11:38;0.30;;;0.20;;
1354;SDS011;671;48.972;9.276;2023-05-07T14:14:04;0.30;;;0.10;;
1354;SDS011;671;48.972;9.276;2023-05-07T14:16:31;0.30;;;0.10;;
1354;SDS011;671;48.972;9.276;2023-05-07T14:18:57;0.30;;;0.20;;
1354;SDS011;671;48.972;9.276;2023-05-07T14:21:24;0.30;;;0.20;;
1354;SDS011;671;48.972;9.276;2023-05-07T14:23:51;0.30;;;0.10;;
1354;SDS011;671;48.972;9.276;2023-05-07T14:26:17;0.30;;;0.20;;
1354;SDS011;671;48.972;9.276;2023-05-07T14:28:44;0.30;;;0.20;;
1354;SDS011;671;48.972;9.276;2023-05-07T14:31:12;0.30;;;0.20;;
1354;SDS011;671;48.972;9.276;2023-05-07T14:33:39;0.30;;;0.20;;
1354;SDS011;671;48.972;9.276;2023-05-07T14:36:05;0.30;;;0.20;;
1354;SDS011;671;48.972;9.276;2023-05-07T14:38:32;0.30;;;0.20;;
1354;SDS011;671;48.972;9.276;2023-05-07T14:40:58;0.30;;;0.20;;
1354;SDS011;671;48.972;9.276;2023-05-07T14:43:25;0.30;;;0.20;;
1354;SDS011;671;48.972;9.276;2023-05-07T14:45:51;0.30;;;0.20;;
1354;SDS011;671;48.972;9.276;2023-05-07T14:48:18;0.30;;;0.20;;
1354;SDS011;671;48.972;9.276;2023-05-07T14:50:46;0.30;;;0.20;;
1354;SDS011;671;48.972;9.276;2023-05-07T14:53:13;0.30;;;0.20;;
1354;SDS011;671;48.972;9.276;2023-05-07T14:55:40;0.30;;;0.20;;
1354;SDS011;671;48.972;9.276;2023-05-07T14:58:07;0.30;;;0.20;;
1354;SDS011;671;48.972;9.276;2023-05-07T15:00:33;0.30;;;0.20;;
1354;SDS011;671;48.972;9.276;2023-05-07T15:03:07;0.30;;;0.20;;
1354;SDS011;671;48.972;9.276;2023-05-07T15:05:35;0.30;;;0.20;;
1354;SDS011;671;48.972;9.276;2023-05-07T15:08:02;0.30;;;0.20;;
1354;SDS011;671;48.972;9.276;2023-05-07T15:10:28;0.30;;;0.20;;
1354;SDS011;671;48.972;9.276;2023-05-07T15:12:55;0.30;;;0.20;;
1354;SDS011;671;48.972;9.276;2023-05-07T15:15:21;0.30;;;0.20;;
1354;SDS011;671;48.972;9.276;2023-05-07T15:17:48;0.30;;;0.20;;
1354;SDS011;671;48.972;9.276;2023-05-07T15:20:14;0.30;;;0.20;;
1354;SDS011;671;48.972;9.276;2023-05-07T15:22:41;0.30;;;0.20;;
1354;SDS011;671;48.972;9.276;2023-05-07T15:25:07;0.30;;;0.20;;
1354;SDS011;671;48.972;9.276;2023-05-07T15:27:34;0.30;;;0.20;;
1354;SDS011;671;48.972;9.276;2023-05-07T15:30:01;0.30;;;0.20;;
1354;SDS011;671;48.972;9.276;2023-05-07T15:32:28;0.30;;;0.20;;
1354;SDS011;671;48.972;9.276;2023-05-07T15:34:54;0.30;;;0.20;;
1354;SDS011;671;48.972;9.276;2023-05-07T15:37:21;0.30;;;0.20;;
1354;SDS011;671;48.972;9.276;2023-05-07T15:39:47;0.30;;;0.20;;
1354;SDS011;671;48.972;9.276;2023-05-07T15:42:17;0.30;;;0.20;;
1354;SDS011;671;48.972;9.276;2023-05-07T15:44:43;0.30;;;0.20;;
1354;SDS011;671;48.972;9.276;2023-05-07T15:47:10;0.30;;;0.20;;
1354;SDS011;671;48.972;9.276;2023-05-07T15:49:36;0.30;;;0.20;;
1354;SDS011;671;48.972;9.276;2023-05-07T15:52:03;0.30;;;0.20;;
1354;SDS011;671;48.972;9.276;2023-05-07T15:54:29;0.30;;;0.20;;